createdAt,value
2023-04-28T00:01:22.490Z,1004.57
2023-04-28T00:04:22.928Z,1004.54
2023-04-28T00:07:22.483Z,1004.49
2023-04-28T00:10:22.485Z,1004.51
2023-04-28T00:13:22.479Z,1004.49
2023-04-28T00:16:22.504Z,1004.38
2023-04-28T00:19:22.488Z,1004.32
2023-04-28T00:22:22.477Z,1004.22
2023-04-28T00:25:22.483Z,1004.15
2023-04-28T00:28:33.278Z,1004.09
2023-04-28T00:31:22.491Z,1004.01
2023-04-28T00:34:22.475Z,1003.99
2023-04-28T00:37:22.605Z,1003.96
2023-04-28T00:40:22.478Z,1003.97
2023-04-28T00:43:22.473Z,1003.95
2023-04-28T00:46:22.781Z,1003.89
2023-04-28T00:49:22.469Z,1003.84
2023-04-28T00:52:22.480Z,1003.79
2023-04-28T00:55:22.522Z,1003.78
2023-04-28T00:58:22.513Z,1003.75
2023-04-28T01:01:22.534Z,1003.77
2023-04-28T01:04:22.654Z,1003.74
2023-04-28T01:07:22.516Z,1003.75
2023-04-28T01:10:22.494Z,1003.7
2023-04-28T01:13:22.572Z,1003.64
2023-04-28T01:16:22.505Z,1003.6
2023-04-28T01:19:22.510Z,1003.51
2023-04-28T01:22:22.489Z,1003.51
2023-04-28T01:25:22.498Z,1003.45
2023-04-28T01:28:22.493Z,1003.43
2023-04-28T01:31:22.512Z,1003.44
2023-04-28T01:34:22.489Z,1003.38
2023-04-28T01:37:22.476Z,1003.32
2023-04-28T01:40:22.482Z,1003.32
2023-04-28T01:43:22.481Z,1003.24
2023-04-28T01:46:22.527Z,1003.17
2023-04-28T01:49:22.483Z,1003.13
2023-04-28T01:52:22.488Z,1003.13
2023-04-28T01:55:22.477Z,1003.04
2023-04-28T01:58:22.489Z,1003
2023-04-28T02:01:22.517Z,1003
2023-04-28T02:04:22.648Z,1003.06
2023-04-28T02:07:22.508Z,1003.05
2023-04-28T02:10:22.522Z,1003.08
2023-04-28T02:13:22.477Z,1003.14
2023-04-28T02:16:22.483Z,1003.19
2023-04-28T02:19:22.479Z,1003.24
2023-04-28T02:22:22.479Z,1003.22
2023-04-28T02:25:22.482Z,1003.26
2023-04-28T02:28:22.466Z,1003.33
2023-04-28T02:31:22.491Z,1003.28
2023-04-28T02:34:22.477Z,1003.25
2023-04-28T02:37:22.472Z,1003.26
2023-04-28T02:40:22.464Z,1003.26
2023-04-28T02:43:22.450Z,1003.16
2023-04-28T02:46:22.471Z,1003.04
2023-04-28T02:49:22.469Z,1002.96
2023-04-28T02:52:22.471Z,1002.92
2023-04-28T02:55:22.472Z,1002.92
2023-04-28T02:58:22.472Z,1002.88
2023-04-28T03:01:22.474Z,1002.84
2023-04-28T03:04:22.764Z,1002.81
2023-04-28T03:07:22.472Z,1002.78
2023-04-28T03:10:22.464Z,1002.72
2023-04-28T03:13:22.464Z,1002.7
2023-04-28T03:16:22.486Z,1002.65
2023-04-28T03:19:22.466Z,1002.66
2023-04-28T03:22:22.465Z,1002.54
2023-04-28T03:25:22.457Z,1002.46
2023-04-28T03:28:22.486Z,1002.55
2023-04-28T03:31:22.486Z,1002.57
2023-04-28T03:34:22.461Z,1002.52
2023-04-28T03:37:22.468Z,1002.45
2023-04-28T03:40:22.465Z,1002.44
2023-04-28T03:43:22.452Z,1002.41
2023-04-28T03:46:22.517Z,1002.33
2023-04-28T03:49:22.466Z,1002.31
2023-04-28T03:52:22.474Z,1002.33
2023-04-28T03:55:22.475Z,1002.25
2023-04-28T03:58:22.453Z,1002.26
2023-04-28T04:01:22.447Z,1002.26
2023-04-28T04:04:23.047Z,1002.24
2023-04-28T04:07:22.478Z,1002.17
2023-04-28T04:10:22.452Z,1002.18
2023-04-28T04:13:22.452Z,1002.07
2023-04-28T04:16:22.510Z,1002.08
2023-04-28T04:19:22.446Z,1002.06
2023-04-28T04:22:22.465Z,1002.03
2023-04-28T04:25:23.316Z,1001.99
2023-04-28T04:28:22.445Z,1001.92
2023-04-28T04:31:22.481Z,1001.86
2023-04-28T04:34:22.458Z,1001.83
2023-04-28T04:37:22.455Z,1001.8
2023-04-28T04:40:22.436Z,1001.8
2023-04-28T04:43:22.440Z,1001.81
2023-04-28T04:46:22.472Z,1001.88
2023-04-28T04:49:22.435Z,1001.95
2023-04-28T04:52:22.450Z,1001.99
2023-04-28T04:55:22.454Z,1002.02
2023-04-28T04:58:22.445Z,1002.12
2023-04-28T05:01:22.450Z,1002.22
2023-04-28T05:04:22.885Z,1002.2
2023-04-28T05:07:22.467Z,1002.23
2023-04-28T05:10:22.439Z,1002.24
2023-04-28T05:13:22.478Z,1002.22
2023-04-28T05:16:22.458Z,1002.2
2023-04-28T05:19:22.433Z,1002.22
2023-04-28T05:22:22.456Z,1002.21
2023-04-28T05:25:22.439Z,1002.13
2023-04-28T05:28:22.444Z,1002.1
2023-04-28T05:31:22.450Z,1002.12
2023-04-28T05:34:22.426Z,1002.13
2023-04-28T05:37:22.453Z,1002.1
2023-04-28T05:40:22.434Z,1002.12
2023-04-28T05:43:22.427Z,1002.1
2023-04-28T05:49:22.419Z,1002.23
2023-04-28T05:52:22.423Z,1002.21
2023-04-28T05:55:22.433Z,1002.32
2023-04-28T05:58:22.414Z,1002.38
2023-04-28T06:01:22.413Z,1002.38
2023-04-28T06:04:22.809Z,1002.35
2023-04-28T06:07:22.408Z,1002.29
2023-04-28T06:10:22.430Z,1002.39
2023-04-28T06:13:22.414Z,1002.43
2023-04-28T06:16:22.440Z,1002.45
2023-04-28T06:19:22.406Z,1002.46
2023-04-28T06:22:22.411Z,1002.44
2023-04-28T06:25:22.412Z,1002.4
2023-04-28T06:28:22.414Z,1002.37
2023-04-28T06:31:22.438Z,1002.35
2023-04-28T06:34:22.407Z,1002.41
2023-04-28T06:37:22.418Z,1002.43
2023-04-28T06:40:22.398Z,1002.51
2023-04-28T06:43:22.419Z,1002.52
2023-04-28T06:46:22.421Z,1002.48
2023-04-28T06:49:22.395Z,1002.49
2023-04-28T06:52:24.882Z,1002.49
2023-04-28T06:55:22.417Z,1002.52
2023-04-28T06:58:22.408Z,1002.5
2023-04-28T07:01:22.428Z,1002.49
2023-04-28T07:04:23.055Z,1002.46
2023-04-28T07:07:22.399Z,1002.29
2023-04-28T07:10:22.394Z,1002.25
2023-04-28T07:13:22.389Z,1002.25
2023-04-28T07:16:22.432Z,1002.19
2023-04-28T07:19:22.385Z,1002.1
2023-04-28T07:22:22.385Z,1002.14
2023-04-28T07:25:22.376Z,1002.18
2023-04-28T07:28:22.384Z,1002.14
2023-04-28T07:31:22.377Z,1001.95
2023-04-28T07:34:22.378Z,1001.96
2023-04-28T07:37:22.368Z,1002.07
2023-04-28T07:40:22.442Z,1002.06
2023-04-28T07:43:22.415Z,1002.03
2023-04-28T07:46:22.378Z,1002
2023-04-28T07:49:22.367Z,1001.97
2023-04-28T07:52:22.406Z,1001.94
2023-04-28T07:55:22.358Z,1001.84
2023-04-28T07:58:22.385Z,1001.83
2023-04-28T08:01:22.361Z,1001.85
2023-04-28T08:04:22.720Z,1001.91
2023-04-28T08:07:22.366Z,1001.89
2023-04-28T08:10:22.384Z,1002.01
2023-04-28T08:13:22.376Z,1001.94
2023-04-28T08:16:22.442Z,1002
2023-04-28T08:19:22.357Z,1001.96
2023-04-28T08:22:22.363Z,1002.02
2023-04-28T08:25:22.363Z,1002.1
2023-04-28T08:28:22.366Z,1002.16
2023-04-28T08:31:22.395Z,1002.2
2023-04-28T08:34:22.587Z,1002.22
2023-04-28T08:37:22.394Z,1002.25
2023-04-28T08:40:22.365Z,1002.28
2023-04-28T08:43:22.383Z,1002.25
2023-04-28T08:46:22.393Z,1002.26
2023-04-28T08:49:22.359Z,1002.22
2023-04-28T08:52:22.360Z,1002.21
2023-04-28T08:55:22.392Z,1002.23
2023-04-28T08:58:22.480Z,1002.24
2023-04-28T09:01:22.389Z,1002.23
2023-04-28T09:04:22.561Z,1002.28
2023-04-28T09:07:22.353Z,1002.29
2023-04-28T09:10:22.368Z,1002.34
2023-04-28T09:13:22.367Z,1002.3
2023-04-28T09:16:22.374Z,1002.27
2023-04-28T09:19:22.346Z,1002.22
2023-04-28T09:22:25.975Z,1002.23
2023-04-28T09:25:22.350Z,1002.22
2023-04-28T09:28:22.384Z,1002.2
2023-04-28T09:31:22.376Z,1002.24
2023-04-28T09:34:22.355Z,1002.21
2023-04-28T09:37:22.399Z,1002.25
2023-04-28T09:40:22.350Z,1002.2
2023-04-28T09:43:22.358Z,1002.17
2023-04-28T09:46:22.370Z,1002.2
2023-04-28T09:49:22.357Z,1002.25
2023-04-28T09:52:22.345Z,1002.31
2023-04-28T09:55:22.349Z,1002.33
2023-04-28T09:58:22.365Z,1002.3
2023-04-28T10:01:22.382Z,1002.3
2023-04-28T10:04:22.442Z,1002.29
2023-04-28T10:07:22.349Z,1002.27
2023-04-28T10:10:22.340Z,1002.24
2023-04-28T10:13:22.361Z,1002.25
2023-04-28T10:16:22.388Z,1002.22
2023-04-28T10:19:22.333Z,1002.17
2023-04-28T10:22:22.343Z,1002.07
2023-04-28T10:25:22.356Z,1002.03
2023-04-28T10:28:22.348Z,1002.03
2023-04-28T10:31:22.342Z,1001.96
2023-04-28T10:34:22.342Z,1001.99
2023-04-28T10:37:22.344Z,1002.04
2023-04-28T10:40:22.338Z,1002.04
2023-04-28T10:43:22.341Z,1002.05
2023-04-28T10:46:22.342Z,1002.03
2023-04-28T10:49:22.327Z,1001.97
2023-04-28T10:52:22.332Z,1001.95
2023-04-28T10:55:22.663Z,1001.9
2023-04-28T10:58:22.394Z,1001.81
2023-04-28T11:01:22.762Z,1001.8
2023-04-28T11:04:22.453Z,1001.81
2023-04-28T11:07:22.334Z,1001.75
2023-04-28T11:10:22.330Z,1001.64
2023-04-28T11:13:22.329Z,1001.67
2023-04-28T11:16:22.387Z,1001.68
2023-04-28T11:19:22.329Z,1001.75
2023-04-28T11:22:22.316Z,1001.72
2023-04-28T11:25:22.318Z,1001.71
2023-04-28T11:28:22.345Z,1001.8
2023-04-28T11:31:22.343Z,1001.72
2023-04-28T11:34:22.322Z,1001.68
2023-04-28T11:37:22.315Z,1001.61
2023-04-28T11:40:22.312Z,1001.55
2023-04-28T11:43:22.341Z,1001.56
2023-04-28T11:46:22.353Z,1001.5
2023-04-28T11:49:22.326Z,1001.43
2023-04-28T11:52:22.317Z,1001.48
2023-04-28T11:55:22.325Z,1001.38
2023-04-28T11:58:22.341Z,1001.38
2023-04-28T12:01:22.326Z,1001.35
2023-04-28T12:04:22.466Z,1001.32
2023-04-28T12:07:22.342Z,1001.3
2023-04-28T12:10:22.323Z,1001.41
2023-04-28T12:13:22.335Z,1001.39
2023-04-28T12:16:22.353Z,1001.37
2023-04-28T12:19:22.322Z,1001.37
2023-04-28T12:22:22.319Z,1001.37
2023-04-28T12:25:22.314Z,1001.36
2023-04-28T12:28:22.336Z,1001.29
2023-04-28T12:31:22.335Z,1001.3
2023-04-28T12:34:22.302Z,1001.35
2023-04-28T12:37:22.314Z,1001.32
2023-04-28T12:40:22.323Z,1001.29
2023-04-28T12:43:22.325Z,1001.29
2023-04-28T12:46:22.385Z,1001.28
2023-04-28T12:49:22.293Z,1001.21
2023-04-28T12:52:22.303Z,1001.16
2023-04-28T12:55:22.306Z,1001.13
2023-04-28T12:58:22.310Z,1001.11
2023-04-28T13:01:22.329Z,1001.26
2023-04-28T13:04:22.434Z,1001.35
2023-04-28T13:07:22.300Z,1001.27
2023-04-28T13:10:22.301Z,1001.16
2023-04-28T13:13:22.302Z,1001.12
2023-04-28T13:16:22.347Z,1001.09
2023-04-28T13:19:22.305Z,1001.12
2023-04-28T13:22:22.321Z,1001.05
2023-04-28T13:25:22.309Z,1001.03
2023-04-28T13:28:22.313Z,1000.98
2023-04-28T13:31:22.353Z,1000.86
2023-04-28T13:34:22.307Z,1000.77
2023-04-28T13:37:22.306Z,1000.9
2023-04-28T13:40:22.297Z,1000.87
2023-04-28T13:43:22.295Z,1000.88
2023-04-28T13:46:22.380Z,1000.78
2023-04-28T13:49:22.291Z,1000.74
2023-04-28T13:52:22.290Z,1000.7
2023-04-28T13:55:27.307Z,1000.72
2023-04-28T13:58:22.287Z,1000.74
2023-04-28T14:01:22.290Z,1000.69
2023-04-28T14:04:22.348Z,1000.58
2023-04-28T14:07:22.308Z,1000.51
2023-04-28T14:10:22.298Z,1000.59
2023-04-28T14:13:22.300Z,1000.65
2023-04-28T14:16:22.364Z,1000.56
2023-04-28T14:19:22.287Z,1000.55
2023-04-28T14:22:22.284Z,1000.57
2023-04-28T14:25:22.289Z,1000.62
2023-04-28T14:28:22.281Z,1000.67
2023-04-28T14:31:22.308Z,1000.66
2023-04-28T14:34:22.280Z,1000.65
2023-04-28T14:37:22.303Z,1000.62
2023-04-28T14:40:22.277Z,1000.72
2023-04-28T14:43:22.275Z,1000.72
2023-04-28T14:46:22.358Z,1000.66
2023-04-28T14:49:22.277Z,1000.54
2023-04-28T14:52:22.272Z,1000.49
2023-04-28T14:55:22.273Z,1000.45
2023-04-28T14:58:22.271Z,1000.46
2023-04-28T15:01:22.297Z,1000.42
2023-04-28T15:04:22.385Z,1000.42
2023-04-28T15:07:22.302Z,1000.5
2023-04-28T15:10:22.264Z,1000.5
2023-04-28T15:13:22.267Z,1000.51
2023-04-28T15:16:22.318Z,1000.54
2023-04-28T15:19:22.268Z,1000.46
2023-04-28T15:22:22.274Z,1000.51
2023-04-28T15:25:22.266Z,1000.45
2023-04-28T15:28:22.260Z,1000.4
2023-04-28T15:31:22.288Z,1000.36
2023-04-28T15:34:22.260Z,1000.39
2023-04-28T15:37:22.264Z,1000.27
2023-04-28T15:40:22.258Z,1000.29
2023-04-28T15:43:22.270Z,1000.41
2023-04-28T15:46:22.290Z,1000.38
2023-04-28T15:49:22.258Z,1000.36
2023-04-28T15:52:22.256Z,1000.36
2023-04-28T15:55:22.254Z,1000.33
2023-04-28T15:58:22.244Z,1000.3
2023-04-28T16:01:22.273Z,1000.23
2023-04-28T16:04:22.370Z,1000.13
2023-04-28T16:07:22.249Z,1000.15
2023-04-28T16:10:22.261Z,1000.21
2023-04-28T16:13:22.252Z,1000.29
2023-04-28T16:16:22.307Z,1000.29
2023-04-28T16:19:22.267Z,1000.32
2023-04-28T16:22:22.249Z,1000.33
2023-04-28T16:25:22.275Z,1000.29
2023-04-28T16:28:22.246Z,1000.12
2023-04-28T16:31:22.246Z,1000.23
2023-04-28T16:34:22.248Z,1000.29
2023-04-28T16:37:22.239Z,1000.1
2023-04-28T16:40:22.237Z,999.92
2023-04-28T16:43:22.232Z,999.8
2023-04-28T16:46:22.330Z,999.71
2023-04-28T16:49:22.235Z,1000.01
2023-04-28T16:52:22.243Z,999.88
2023-04-28T16:55:22.250Z,999.98
2023-04-28T16:58:22.237Z,1000.01
2023-04-28T17:01:22.337Z,999.94
2023-04-28T17:04:22.402Z,999.85
2023-04-28T17:07:24.160Z,999.77
2023-04-28T17:10:22.287Z,999.71
2023-04-28T17:13:22.285Z,999.71
2023-04-28T17:16:22.392Z,999.79
2023-04-28T17:19:22.287Z,999.79
2023-04-28T17:22:22.286Z,999.85
2023-04-28T17:25:22.284Z,999.8
2023-04-28T17:28:22.327Z,999.84
2023-04-28T17:31:22.322Z,1000.04
2023-04-28T17:34:22.321Z,999.95
2023-04-28T17:37:22.317Z,999.85
2023-04-28T17:40:22.277Z,999.79
2023-04-28T17:43:22.357Z,999.71
2023-04-28T17:46:22.510Z,999.67
2023-04-28T17:49:22.382Z,999.76
2023-04-28T17:52:22.381Z,999.9
2023-04-28T17:55:22.367Z,999.93
2023-04-28T17:58:22.370Z,999.89
2023-04-28T18:01:22.449Z,999.84
2023-04-28T18:04:22.402Z,999.9
2023-04-28T18:07:22.361Z,999.96
2023-04-28T18:10:22.363Z,1000.03
2023-04-28T18:13:22.386Z,1000.01
2023-04-28T18:16:22.503Z,1000
2023-04-28T18:19:22.456Z,999.98
2023-04-28T18:22:22.432Z,1000.01
2023-04-28T18:25:22.357Z,1000.09
2023-04-28T18:28:22.360Z,1000.19
2023-04-28T18:31:22.362Z,1000.26
2023-04-28T18:34:22.350Z,1000.22
2023-04-28T18:37:22.357Z,1000.22
2023-04-28T18:40:22.361Z,1000.29
2023-04-28T18:43:22.352Z,1000.26
2023-04-28T18:46:22.465Z,1000.29
2023-04-28T18:49:22.348Z,1000.33
2023-04-28T18:52:22.344Z,1000.35
2023-04-28T18:55:22.348Z,1000.35
2023-04-28T18:58:22.350Z,1000.39
2023-04-28T19:01:22.389Z,1000.4
2023-04-28T19:04:22.458Z,1000.51
2023-04-28T19:07:22.337Z,1000.55
2023-04-28T19:10:22.345Z,1000.63
2023-04-28T19:13:22.344Z,1000.65
2023-04-28T19:16:22.343Z,1000.71
2023-04-28T19:19:22.354Z,1000.78
2023-04-28T19:22:22.340Z,1000.77
2023-04-28T19:25:22.338Z,1000.85
2023-04-28T19:28:22.339Z,1000.96
2023-04-28T19:31:22.430Z,1001.07
2023-04-28T19:34:22.337Z,1001.14
2023-04-28T19:37:22.339Z,1001.08
2023-04-28T19:40:22.358Z,1001.15
2023-04-28T19:43:22.333Z,1001.2
2023-04-28T19:46:22.364Z,1001.24
2023-04-28T19:49:22.449Z,1001.32
2023-04-28T19:52:22.447Z,1001.4
2023-04-28T19:55:22.444Z,1001.42
2023-04-28T19:58:22.453Z,1001.48
2023-04-28T20:01:22.458Z,1001.45
2023-04-28T20:04:22.613Z,1001.5
2023-04-28T20:07:22.439Z,1001.54
2023-04-28T20:10:22.436Z,1001.6
2023-04-28T20:13:22.444Z,1001.64
2023-04-28T20:16:22.457Z,1001.68
2023-04-28T20:19:22.438Z,1001.72
2023-04-28T20:22:22.443Z,1001.69
2023-04-28T20:25:22.442Z,1001.74
2023-04-28T20:28:22.428Z,1001.75
2023-04-28T20:31:22.462Z,1001.76
2023-04-28T20:34:22.436Z,1001.76
2023-04-28T20:37:22.432Z,1001.79
2023-04-28T20:40:22.433Z,1001.84
2023-04-28T20:43:22.430Z,1001.8
2023-04-28T20:46:22.481Z,1001.73
2023-04-28T20:49:22.451Z,1001.69
2023-04-28T20:52:22.443Z,1001.7
2023-04-28T20:55:22.427Z,1001.7
2023-04-28T20:58:22.427Z,1001.73
2023-04-28T21:01:22.463Z,1001.76
2023-04-28T21:04:22.519Z,1001.76
2023-04-28T21:07:22.424Z,1001.81
2023-04-28T21:10:22.443Z,1001.84
2023-04-28T21:13:22.428Z,1001.78
2023-04-28T21:16:22.465Z,1001.74
2023-04-28T21:19:22.430Z,1001.77
2023-04-28T21:22:22.422Z,1001.87
2023-04-28T21:25:22.427Z,1001.83
2023-04-28T21:28:22.427Z,1001.76
2023-04-28T21:31:22.428Z,1001.83
2023-04-28T21:34:22.417Z,1001.78
2023-04-28T21:37:22.439Z,1001.87
2023-04-28T21:40:22.427Z,1001.79
2023-04-28T21:43:22.425Z,1001.94
2023-04-28T21:46:22.468Z,1001.92
2023-04-28T21:49:22.432Z,1001.88
2023-04-28T21:52:22.417Z,1001.91
2023-04-28T21:55:22.416Z,1001.92
2023-04-28T21:58:22.413Z,1001.97
2023-04-28T22:01:22.468Z,1001.92
2023-04-28T22:04:22.494Z,1001.87
2023-04-28T22:07:22.406Z,1001.93
2023-04-28T22:10:22.410Z,1001.92
2023-04-28T22:13:22.409Z,1001.97
2023-04-28T22:16:22.469Z,1001.98
2023-04-28T22:19:22.409Z,1002
2023-04-28T22:22:22.411Z,1001.99
2023-04-28T22:25:22.408Z,1002.01
2023-04-28T22:28:22.404Z,1002.02
2023-04-28T22:31:22.456Z,1002.06
2023-04-28T22:34:22.412Z,1002.05
2023-04-28T22:37:22.419Z,1002.04
2023-04-28T22:40:22.406Z,1002.05
2023-04-28T22:43:22.401Z,1002.09
2023-04-28T22:46:22.429Z,1002.1
2023-04-28T22:49:22.403Z,1002.11
2023-04-28T22:52:22.405Z,1002.09
2023-04-28T22:55:22.406Z,1002.12
2023-04-28T22:58:22.479Z,1002.07
2023-04-28T23:01:22.508Z,1002.17
2023-04-28T23:04:22.629Z,1002.17
2023-04-28T23:07:22.483Z,1002.13
2023-04-28T23:10:22.481Z,1002.11
2023-04-28T23:13:22.486Z,1002.09
2023-04-28T23:16:22.508Z,1002.14
2023-04-28T23:19:22.487Z,1002.11
2023-04-28T23:22:22.476Z,1002.17
2023-04-28T23:25:22.477Z,1002.19
2023-04-28T23:28:22.489Z,1002.15
2023-04-28T23:31:22.528Z,1002.13
2023-04-28T23:34:22.512Z,1002.05
2023-04-28T23:37:22.475Z,1002.06
2023-04-28T23:40:22.480Z,1002.09
2023-04-28T23:43:22.488Z,1002.1
2023-04-28T23:46:22.481Z,1002.19
2023-04-28T23:49:22.499Z,1002.15
2023-04-28T23:52:22.493Z,1002.13
2023-04-28T23:55:22.489Z,1002.07
2023-04-28T23:58:22.469Z,1002.06
